sensor_id;sensor_type;location;lat;lon;timestamp;temperature;humidity
62583;DHT22;48641;51.676;5.808;2024-03-23T00:55:40;16.50;57.80
62583;DHT22;48641;51.676;5.808;2024-03-23T00:58:06;16.40;57.80
62583;DHT22;48641;51.676;5.808;2024-03-23T01:00:31;16.40;57.80
62583;DHT22;48641;51.676;5.808;2024-03-23T01:02:57;16.40;57.80
62583;DHT22;48641;51.676;5.808;2024-03-23T01:05:22;16.40;58.80
62583;DHT22;48641;51.676;5.808;2024-03-23T01:07:48;16.40;57.90
62583;DHT22;48641;51.676;5.808;2024-03-23T01:10:13;16.40;57.80
62583;DHT22;48641;51.676;5.808;2024-03-23T01:12:39;16.40;57.80
62583;DHT22;48641;51.676;5.808;2024-03-23T01:15:05;16.40;57.90
62583;DHT22;48641;51.676;5.808;2024-03-23T01:17:31;16.40;57.80
62583;DHT22;48641;51.676;5.808;2024-03-23T01:19:57;16.40;57.80
62583;DHT22;48641;51.676;5.808;2024-03-23T01:22:22;16.40;57.80
62583;DHT22;48641;51.676;5.808;2024-03-23T01:24:48;16.40;57.80
62583;DHT22;48641;51.676;5.808;2024-03-23T01:27:14;16.40;57.80
62583;DHT22;48641;51.676;5.808;2024-03-23T01:29:39;16.40;57.80
62583;DHT22;48641;51.676;5.808;2024-03-23T01:32:05;16.40;57.80
62583;DHT22;48641;51.676;5.808;2024-03-23T01:34:32;16.40;58.80
62583;DHT22;48641;51.676;5.808;2024-03-23T01:36:57;16.40;57.80
62583;DHT22;48641;51.676;5.808;2024-03-23T01:39:24;16.40;57.80
62583;DHT22;48641;51.676;5.808;2024-03-23T01:41:50;16.30;57.80
62583;DHT22;48641;51.676;5.808;2024-03-23T01:44:15;16.30;57.80
62583;DHT22;48641;51.676;5.808;2024-03-23T01:46:41;16.30;57.80
62583;DHT22;48641;51.676;5.808;2024-03-23T01:49:08;16.30;57.80
62583;DHT22;48641;51.676;5.808;2024-03-23T01:51:34;16.30;57.80
62583;DHT22;48641;51.676;5.808;2024-03-23T01:54:02;16.30;57.80
62583;DHT22;48641;51.676;5.808;2024-03-23T01:56:37;16.30;57.90
62583;DHT22;48641;51.676;5.808;2024-03-23T01:59:04;16.30;57.80
62583;DHT22;48641;51.676;5.808;2024-03-23T02:01:29;16.30;57.80
62583;DHT22;48641;51.676;5.808;2024-03-23T02:03:56;16.30;57.90
62583;DHT22;48641;51.676;5.808;2024-03-23T02:06:22;16.30;57.80
62583;DHT22;48641;51.676;5.808;2024-03-23T02:08:48;16.30;57.80
62583;DHT22;48641;51.676;5.808;2024-03-23T02:11:14;16.30;57.80
62583;DHT22;48641;51.676;5.808;2024-03-23T02:13:39;16.20;57.70
62583;DHT22;48641;51.676;5.808;2024-03-23T02:16:05;16.20;57.70
62583;DHT22;48641;51.676;5.808;2024-03-23T02:18:32;16.20;57.70
62583;DHT22;48641;51.676;5.808;2024-03-23T02:20:58;16.20;57.70
62583;DHT22;48641;51.676;5.808;2024-03-23T02:23:23;16.20;57.70
62583;DHT22;48641;51.676;5.808;2024-03-23T02:25:50;16.20;57.70
62583;DHT22;48641;51.676;5.808;2024-03-23T02:28:15;16.20;57.70
62583;DHT22;48641;51.676;5.808;2024-03-23T02:30:42;16.20;57.80
62583;DHT22;48641;51.676;5.808;2024-03-23T02:33:08;16.20;57.70
62583;DHT22;48641;51.676;5.808;2024-03-23T02:35:33;16.20;57.70
62583;DHT22;48641;51.676;5.808;2024-03-23T02:37:59;16.20;57.70
62583;DHT22;48641;51.676;5.808;2024-03-23T02:40:25;16.20;57.80
62583;DHT22;48641;51.676;5.808;2024-03-23T02:42:50;16.20;57.70
62583;DHT22;48641;51.676;5.808;2024-03-23T02:45:16;16.20;57.70
62583;DHT22;48641;51.676;5.808;2024-03-23T02:47:42;16.20;57.70
62583;DHT22;48641;51.676;5.808;2024-03-23T02:50:08;16.20;57.70
62583;DHT22;48641;51.676;5.808;2024-03-23T02:52:34;16.20;57.70
62583;DHT22;48641;51.676;5.808;2024-03-23T02:55:00;16.10;57.70
62583;DHT22;48641;51.676;5.808;2024-03-23T02:57:27;16.10;57.60
62583;DHT22;48641;51.676;5.808;2024-03-23T02:59:53;16.10;57.60
62583;DHT22;48641;51.676;5.808;2024-03-23T03:02:20;16.10;57.60
62583;DHT22;48641;51.676;5.808;2024-03-23T03:04:46;16.20;57.70
62583;DHT22;48641;51.676;5.808;2024-03-23T03:07:12;16.10;57.60
62583;DHT22;48641;51.676;5.808;2024-03-23T03:09:37;16.10;57.60
62583;DHT22;48641;51.676;5.808;2024-03-23T03:12:07;16.10;57.60
62583;DHT22;48641;51.676;5.808;2024-03-23T03:14:33;16.10;57.60
62583;DHT22;48641;51.676;5.808;2024-03-23T03:16:59;16.10;57.70
62583;DHT22;48641;51.676;5.808;2024-03-23T03:19:24;16.00;57.80
62583;DHT22;48641;51.676;5.808;2024-03-23T03:21:50;16.00;57.80
62583;DHT22;48641;51.676;5.808;2024-03-23T03:24:16;16.00;57.90
62583;DHT22;48641;51.676;5.808;2024-03-23T03:26:42;16.00;58.80
62583;DHT22;48641;51.676;5.808;2024-03-23T03:29:08;16.00;57.80
62583;DHT22;48641;51.676;5.808;2024-03-23T03:31:33;16.00;57.80
62583;DHT22;48641;51.676;5.808;2024-03-23T03:33:59;16.00;57.80
62583;DHT22;48641;51.676;5.808;2024-03-23T03:36:24;16.00;57.70
62583;DHT22;48641;51.676;5.808;2024-03-23T03:38:50;16.00;57.80
62583;DHT22;48641;51.676;5.808;2024-03-23T03:41:15;16.00;57.80
62583;DHT22;48641;51.676;5.808;2024-03-23T03:43:41;16.00;57.80
62583;DHT22;48641;51.676;5.808;2024-03-23T03:46:07;16.00;57.70
62583;DHT22;48641;51.676;5.808;2024-03-23T03:48:36;16.00;57.70
62583;DHT22;48641;51.676;5.808;2024-03-23T03:51:02;16.00;57.70
62583;DHT22;48641;51.676;5.808;2024-03-23T03:53:27;15.90;57.90
62583;DHT22;48641;51.676;5.808;2024-03-23T03:55:53;15.90;58.90
62583;DHT22;48641;51.676;5.808;2024-03-23T03:58:18;15.90;57.90
62583;DHT22;48641;51.676;5.808;2024-03-23T04:00:44;15.90;57.90
62583;DHT22;48641;51.676;5.808;2024-03-23T04:03:09;15.90;57.80
62583;DHT22;48641;51.676;5.808;2024-03-23T04:05:35;15.90;57.80
62583;DHT22;48641;51.676;5.808;2024-03-23T04:08:01;15.90;57.80
62583;DHT22;48641;51.676;5.808;2024-03-23T04:10:26;15.90;57.80
62583;DHT22;48641;51.676;5.808;2024-03-23T04:12:52;15.90;57.80
62583;DHT22;48641;51.676;5.808;2024-03-23T04:15:19;15.90;57.80
62583;DHT22;48641;51.676;5.808;2024-03-23T04:17:44;15.90;57.80
62583;DHT22;48641;51.676;5.808;2024-03-23T04:20:10;15.90;57.80
62583;DHT22;48641;51.676;5.808;2024-03-23T04:22:40;15.90;57.80
62583;DHT22;48641;51.676;5.808;2024-03-23T04:25:06;15.90;58.70
62583;DHT22;48641;51.676;5.808;2024-03-23T04:27:36;15.90;57.70
62583;DHT22;48641;51.676;5.808;2024-03-23T04:30:02;15.90;57.80
62583;DHT22;48641;51.676;5.808;2024-03-23T04:32:29;15.90;57.70
62583;DHT22;48641;51.676;5.808;2024-03-23T04:34:55;15.80;57.70
62583;DHT22;48641;51.676;5.808;2024-03-23T04:37:22;15.90;57.60
62583;DHT22;48641;51.676;5.808;2024-03-23T04:39:47;15.90;57.60
62583;DHT22;48641;51.676;5.808;2024-03-23T04:42:15;15.90;57.70
62583;DHT22;48641;51.676;5.808;2024-03-23T04:44:41;15.90;57.60
62583;DHT22;48641;51.676;5.808;2024-03-23T04:47:07;15.80;57.60
62583;DHT22;48641;51.676;5.808;2024-03-23T04:49:32;15.80;57.60
62583;DHT22;48641;51.676;5.808;2024-03-23T04:51:58;15.80;57.60
62583;DHT22;48641;51.676;5.808;2024-03-23T04:54:24;15.80;57.60
62583;DHT22;48641;51.676;5.808;2024-03-23T04:56:49;15.80;57.60
62583;DHT22;48641;51.676;5.808;2024-03-23T04:59:15;15.80;57.60
62583;DHT22;48641;51.676;5.808;2024-03-23T05:01:40;15.80;57.60
62583;DHT22;48641;51.676;5.808;2024-03-23T05:04:07;15.80;57.60
62583;DHT22;48641;51.676;5.808;2024-03-23T05:06:33;15.80;57.60
62583;DHT22;48641;51.676;5.808;2024-03-23T05:09:00;15.80;57.60
62583;DHT22;48641;51.676;5.808;2024-03-23T05:11:28;15.80;57.40
62583;DHT22;48641;51.676;5.808;2024-03-23T05:13:53;15.80;57.50
62583;DHT22;48641;51.676;5.808;2024-03-23T05:16:19;15.80;57.40
62583;DHT22;48641;51.676;5.808;2024-03-23T05:18:44;15.70;57.50
62583;DHT22;48641;51.676;5.808;2024-03-23T05:21:12;15.70;58.50
62583;DHT22;48641;51.676;5.808;2024-03-23T05:23:37;15.80;57.60
62583;DHT22;48641;51.676;5.808;2024-03-23T05:26:03;15.80;57.60
62583;DHT22;48641;51.676;5.808;2024-03-23T05:28:29;15.70;57.60
62583;DHT22;48641;51.676;5.808;2024-03-23T05:30:55;15.70;57.60
62583;DHT22;48641;51.676;5.808;2024-03-23T05:33:22;15.70;57.60
62583;DHT22;48641;51.676;5.808;2024-03-23T05:35:56;15.70;57.60
62583;DHT22;48641;51.676;5.808;2024-03-23T05:38:22;15.70;57.60
62583;DHT22;48641;51.676;5.808;2024-03-23T05:41:00;15.70;57.70
62583;DHT22;48641;51.676;5.808;2024-03-23T05:43:26;15.70;57.70
62583;DHT22;48641;51.676;5.808;2024-03-23T05:45:59;15.70;57.70
62583;DHT22;48641;51.676;5.808;2024-03-23T05:48:27;15.60;57.60
62583;DHT22;48641;51.676;5.808;2024-03-23T05:50:53;15.60;57.60
62583;DHT22;48641;51.676;5.808;2024-03-23T05:53:19;15.60;57.60
62583;DHT22;48641;51.676;5.808;2024-03-23T05:55:48;15.60;57.70
62583;DHT22;48641;51.676;5.808;2024-03-23T05:58:17;15.60;57.60
62583;DHT22;48641;51.676;5.808;2024-03-23T06:00:44;15.60;57.70
62583;DHT22;48641;51.676;5.808;2024-03-23T06:03:10;15.60;57.60
62583;DHT22;48641;51.676;5.808;2024-03-23T06:05:36;15.60;57.60
62583;DHT22;48641;51.676;5.808;2024-03-23T06:08:02;15.60;57.60
62583;DHT22;48641;51.676;5.808;2024-03-23T06:10:28;15.60;57.60
62583;DHT22;48641;51.676;5.808;2024-03-23T06:12:54;15.60;57.60
62583;DHT22;48641;51.676;5.808;2024-03-23T06:15:19;15.70;57.50
62583;DHT22;48641;51.676;5.808;2024-03-23T06:17:45;15.60;57.50
62583;DHT22;48641;51.676;5.808;2024-03-23T06:20:11;15.60;57.40
62583;DHT22;48641;51.676;5.808;2024-03-23T06:22:37;15.60;57.40
62583;DHT22;48641;51.676;5.808;2024-03-23T06:25:03;15.60;57.40
62583;DHT22;48641;51.676;5.808;2024-03-23T06:27:28;15.60;57.40
62583;DHT22;48641;51.676;5.808;2024-03-23T06:29:54;15.60;57.30
62583;DHT22;48641;51.676;5.808;2024-03-23T06:32:20;15.60;57.40
62583;DHT22;48641;51.676;5.808;2024-03-23T06:34:46;15.60;57.30
62583;DHT22;48641;51.676;5.808;2024-03-23T06:37:12;15.60;57.30
62583;DHT22;48641;51.676;5.808;2024-03-23T06:39:37;15.60;57.30
62583;DHT22;48641;51.676;5.808;2024-03-23T06:42:03;15.70;57.40
62583;DHT22;48641;51.676;5.808;2024-03-23T06:44:29;15.70;57.40
62583;DHT22;48641;51.676;5.808;2024-03-23T06:46:55;15.70;57.40
62583;DHT22;48641;51.676;5.808;2024-03-23T06:49:22;15.70;61.70
62583;DHT22;48641;51.676;5.808;2024-03-23T06:51:47;15.70;61.70
62583;DHT22;48641;51.676;5.808;2024-03-23T06:54:16;15.80;62.00
62583;DHT22;48641;51.676;5.808;2024-03-23T06:56:41;15.80;62.20
62583;DHT22;48641;51.676;5.808;2024-03-23T06:59:07;15.90;62.40
62583;DHT22;48641;51.676;5.808;2024-03-23T07:01:33;15.90;62.40
62583;DHT22;48641;51.676;5.808;2024-03-23T07:03:58;15.90;62.20
62583;DHT22;48641;51.676;5.808;2024-03-23T07:06:24;15.90;61.90
62583;DHT22;48641;51.676;5.808;2024-03-23T07:08:49;16.00;61.60
62583;DHT22;48641;51.676;5.808;2024-03-23T07:11:19;16.00;61.10
62583;DHT22;48641;51.676;5.808;2024-03-23T07:13:45;16.00;60.70
62583;DHT22;48641;51.676;5.808;2024-03-23T07:16:11;16.00;60.30
62583;DHT22;48641;51.676;5.808;2024-03-23T07:18:36;16.10;60.10
62583;DHT22;48641;51.676;5.808;2024-03-23T07:21:02;16.00;59.70
62583;DHT22;48641;51.676;5.808;2024-03-23T07:23:28;16.10;59.70
62583;DHT22;48641;51.676;5.808;2024-03-23T07:26:02;16.10;59.50
62583;DHT22;48641;51.676;5.808;2024-03-23T07:28:28;16.10;59.50
62583;DHT22;48641;51.676;5.808;2024-03-23T07:31:23;16.20;59.40
62583;DHT22;48641;51.676;5.808;2024-03-23T07:33:50;16.20;59.20
62583;DHT22;48641;51.676;5.808;2024-03-23T07:36:16;16.20;59.10
62583;DHT22;48641;51.676;5.808;2024-03-23T07:38:45;16.30;59.00
62583;DHT22;48641;51.676;5.808;2024-03-23T07:41:11;16.30;59.00
62583;DHT22;48641;51.676;5.808;2024-03-23T07:43:38;16.30;59.00
62583;DHT22;48641;51.676;5.808;2024-03-23T07:46:04;16.30;59.00
62583;DHT22;48641;51.676;5.808;2024-03-23T07:48:30;16.30;58.80
62583;DHT22;48641;51.676;5.808;2024-03-23T07:51:03;16.40;58.70
62583;DHT22;48641;51.676;5.808;2024-03-23T07:53:33;16.40;58.50
62583;DHT22;48641;51.676;5.808;2024-03-23T07:56:01;16.50;58.40
62583;DHT22;48641;51.676;5.808;2024-03-23T07:58:27;16.50;58.30
62583;DHT22;48641;51.676;5.808;2024-03-23T08:00:54;16.50;58.10
62583;DHT22;48641;51.676;5.808;2024-03-23T08:03:19;16.60;59.00
62583;DHT22;48641;51.676;5.808;2024-03-23T08:05:45;16.60;57.90
62583;DHT22;48641;51.676;5.808;2024-03-23T08:08:11;16.70;57.80
62583;DHT22;48641;51.676;5.808;2024-03-23T08:10:46;16.70;57.60
62583;DHT22;48641;51.676;5.808;2024-03-23T08:13:12;16.80;57.60
62583;DHT22;48641;51.676;5.808;2024-03-23T08:15:37;16.80;57.30
62583;DHT22;48641;51.676;5.808;2024-03-23T08:18:03;16.90;57.30
62583;DHT22;48641;51.676;5.808;2024-03-23T08:20:29;16.90;57.20
62583;DHT22;48641;51.676;5.808;2024-03-23T08:22:54;16.90;57.00
62583;DHT22;48641;51.676;5.808;2024-03-23T08:25:23;17.00;57.00
62583;DHT22;48641;51.676;5.808;2024-03-23T08:27:48;17.00;56.90
62583;DHT22;48641;51.676;5.808;2024-03-23T08:30:14;17.00;56.90
62583;DHT22;48641;51.676;5.808;2024-03-23T08:32:40;17.00;56.80
62583;DHT22;48641;51.676;5.808;2024-03-23T08:35:06;17.00;56.80
62583;DHT22;48641;51.676;5.808;2024-03-23T08:37:32;17.10;57.00
62583;DHT22;48641;51.676;5.808;2024-03-23T08:39:58;17.10;57.00
62583;DHT22;48641;51.676;5.808;2024-03-23T08:42:23;17.10;57.10
62583;DHT22;48641;51.676;5.808;2024-03-23T08:44:50;17.10;57.10
62583;DHT22;48641;51.676;5.808;2024-03-23T08:47:16;17.10;57.10
62583;DHT22;48641;51.676;5.808;2024-03-23T08:49:41;17.20;57.10
62583;DHT22;48641;51.676;5.808;2024-03-23T08:52:07;17.20;57.10
62583;DHT22;48641;51.676;5.808;2024-03-23T08:54:33;17.20;57.50
62583;DHT22;48641;51.676;5.808;2024-03-23T08:57:00;17.20;58.50
62583;DHT22;48641;51.676;5.808;2024-03-23T08:59:25;17.20;57.50
62583;DHT22;48641;51.676;5.808;2024-03-23T09:01:51;17.20;57.50
62583;DHT22;48641;51.676;5.808;2024-03-23T09:04:16;17.20;57.50
62583;DHT22;48641;51.676;5.808;2024-03-23T09:06:43;17.20;57.40
62583;DHT22;48641;51.676;5.808;2024-03-23T09:09:08;17.20;57.10
62583;DHT22;48641;51.676;5.808;2024-03-23T09:11:34;17.20;56.90
62583;DHT22;48641;51.676;5.808;2024-03-23T09:13:59;17.20;56.70
62583;DHT22;48641;51.676;5.808;2024-03-23T09:16:25;17.10;56.60
62583;DHT22;48641;51.676;5.808;2024-03-23T09:18:52;17.10;56.50
62583;DHT22;48641;51.676;5.808;2024-03-23T09:21:18;17.10;56.40
62583;DHT22;48641;51.676;5.808;2024-03-23T09:23:44;17.10;56.30
62583;DHT22;48641;51.676;5.808;2024-03-23T09:26:09;17.10;56.20
62583;DHT22;48641;51.676;5.808;2024-03-23T09:28:35;17.10;56.20
62583;DHT22;48641;51.676;5.808;2024-03-23T09:31:05;17.00;56.00
62583;DHT22;48641;51.676;5.808;2024-03-23T09:33:31;17.00;55.80
62583;DHT22;48641;51.676;5.808;2024-03-23T09:35:56;17.00;55.90
62583;DHT22;48641;51.676;5.808;2024-03-23T09:38:23;17.00;56.00
62583;DHT22;48641;51.676;5.808;2024-03-23T09:40:53;17.00;56.10
62583;DHT22;48641;51.676;5.808;2024-03-23T09:43:19;17.00;55.90
62583;DHT22;48641;51.676;5.808;2024-03-23T09:45:45;17.00;55.90
62583;DHT22;48641;51.676;5.808;2024-03-23T09:48:12;16.90;55.70
62583;DHT22;48641;51.676;5.808;2024-03-23T09:50:38;16.90;55.90
62583;DHT22;48641;51.676;5.808;2024-03-23T09:53:08;16.90;55.90
62583;DHT22;48641;51.676;5.808;2024-03-23T09:55:34;17.00;56.10
62583;DHT22;48641;51.676;5.808;2024-03-23T09:58:03;16.90;56.10
62583;DHT22;48641;51.676;5.808;2024-03-23T10:00:30;16.90;56.40
62583;DHT22;48641;51.676;5.808;2024-03-23T10:02:56;16.90;56.30
62583;DHT22;48641;51.676;5.808;2024-03-23T10:05:30;16.90;56.40
62583;DHT22;48641;51.676;5.808;2024-03-23T10:10:40;16.90;56.30
62583;DHT22;48641;51.676;5.808;2024-03-23T10:13:05;16.90;56.40
62583;DHT22;48641;51.676;5.808;2024-03-23T10:15:34;16.80;56.40
62583;DHT22;48641;51.676;5.808;2024-03-23T10:19:03;16.90;56.50
62583;DHT22;48641;51.676;5.808;2024-03-23T10:21:15;16.80;56.50
62583;DHT22;48641;51.676;5.808;2024-03-23T10:23:42;16.80;56.70
62583;DHT22;48641;51.676;5.808;2024-03-23T10:28:55;16.80;56.10
62583;DHT22;48641;51.676;5.808;2024-03-23T10:31:23;16.80;55.80
62583;DHT22;48641;51.676;5.808;2024-03-23T10:33:50;16.70;55.50
62583;DHT22;48641;51.676;5.808;2024-03-23T10:36:16;16.70;55.80
62583;DHT22;48641;51.676;5.808;2024-03-23T10:38:44;16.70;55.70
62583;DHT22;48641;51.676;5.808;2024-03-23T10:41:12;16.70;55.80
62583;DHT22;48641;51.676;5.808;2024-03-23T10:43:38;16.70;56.00
62583;DHT22;48641;51.676;5.808;2024-03-23T10:46:05;16.70;56.00
62583;DHT22;48641;51.676;5.808;2024-03-23T10:48:34;16.70;55.90
62583;DHT22;48641;51.676;5.808;2024-03-23T10:51:00;16.60;56.20
62583;DHT22;48641;51.676;5.808;2024-03-23T10:53:27;16.60;56.20
62583;DHT22;48641;51.676;5.808;2024-03-23T10:55:54;16.60;56.40
62583;DHT22;48641;51.676;5.808;2024-03-23T10:58:29;16.60;56.40
62583;DHT22;48641;51.676;5.808;2024-03-23T11:00:55;16.60;56.20
62583;DHT22;48641;51.676;5.808;2024-03-23T11:03:34;16.60;56.40
62583;DHT22;48641;51.676;5.808;2024-03-23T11:06:05;16.60;56.00
62583;DHT22;48641;51.676;5.808;2024-03-23T11:08:32;16.60;56.00
62583;DHT22;48641;51.676;5.808;2024-03-23T11:11:19;16.60;55.70
62583;DHT22;48641;51.676;5.808;2024-03-23T11:13:51;16.60;56.00
62583;DHT22;48641;51.676;5.808;2024-03-23T11:16:25;16.60;56.10
62583;DHT22;48641;51.676;5.808;2024-03-23T11:18:53;16.60;56.10
62583;DHT22;48641;51.676;5.808;2024-03-23T11:21:52;16.60;56.20
62583;DHT22;48641;51.676;5.808;2024-03-23T11:24:19;16.60;56.40
62583;DHT22;48641;51.676;5.808;2024-03-23T11:26:46;16.60;56.40
62583;DHT22;48641;51.676;5.808;2024-03-23T11:29:13;16.60;56.40
62583;DHT22;48641;51.676;5.808;2024-03-23T11:31:45;16.70;56.30
62583;DHT22;48641;51.676;5.808;2024-03-23T11:34:11;16.70;56.40
62583;DHT22;48641;51.676;5.808;2024-03-23T11:36:36;16.70;56.10
62583;DHT22;48641;51.676;5.808;2024-03-23T11:39:14;16.70;55.90
62583;DHT22;48641;51.676;5.808;2024-03-23T11:41:56;16.70;55.90
62583;DHT22;48641;51.676;5.808;2024-03-23T11:44:23;16.80;55.80
62583;DHT22;48641;51.676;5.808;2024-03-23T11:46:50;16.70;55.80
62583;DHT22;48641;51.676;5.808;2024-03-23T11:49:28;16.70;55.60
62583;DHT22;48641;51.676;5.808;2024-03-23T11:51:55;16.70;55.80
62583;DHT22;48641;51.676;5.808;2024-03-23T11:54:22;16.70;55.40
62583;DHT22;48641;51.676;5.808;2024-03-23T11:56:55;16.70;55.80
62583;DHT22;48641;51.676;5.808;2024-03-23T11:59:35;16.70;55.80
62583;DHT22;48641;51.676;5.808;2024-03-23T12:02:06;16.70;55.60
62583;DHT22;48641;51.676;5.808;2024-03-23T12:04:32;16.70;55.70
62583;DHT22;48641;51.676;5.808;2024-03-23T12:07:11;16.70;55.40
62583;DHT22;48641;51.676;5.808;2024-03-23T12:09:37;16.70;55.20
62583;DHT22;48641;51.676;5.808;2024-03-23T12:12:13;16.70;55.40
62583;DHT22;48641;51.676;5.808;2024-03-23T12:14:41;16.70;55.70
62583;DHT22;48641;51.676;5.808;2024-03-23T12:17:14;16.70;55.80
62583;DHT22;48641;51.676;5.808;2024-03-23T12:19:41;16.70;55.60
62583;DHT22;48641;51.676;5.808;2024-03-23T12:22:07;16.70;55.80
62583;DHT22;48641;51.676;5.808;2024-03-23T12:24:34;16.70;55.90
62583;DHT22;48641;51.676;5.808;2024-03-23T12:27:04;16.60;55.80
62583;DHT22;48641;51.676;5.808;2024-03-23T12:29:32;16.70;56.00
62583;DHT22;48641;51.676;5.808;2024-03-23T12:32:00;16.70;55.90
62583;DHT22;48641;51.676;5.808;2024-03-23T12:34:26;16.70;56.10
62583;DHT22;48641;51.676;5.808;2024-03-23T12:36:52;16.70;56.10
62583;DHT22;48641;51.676;5.808;2024-03-23T12:39:17;16.70;56.10
62583;DHT22;48641;51.676;5.808;2024-03-23T12:41:44;16.70;56.00
62583;DHT22;48641;51.676;5.808;2024-03-23T12:44:09;16.70;55.90
62583;DHT22;48641;51.676;5.808;2024-03-23T12:46:37;16.70;55.80
62583;DHT22;48641;51.676;5.808;2024-03-23T12:49:03;16.70;55.90
62583;DHT22;48641;51.676;5.808;2024-03-23T12:51:29;16.70;55.80
62583;DHT22;48641;51.676;5.808;2024-03-23T12:53:54;16.70;56.00
62583;DHT22;48641;51.676;5.808;2024-03-23T12:56:20;16.70;56.00
62583;DHT22;48641;51.676;5.808;2024-03-23T12:58:45;16.70;55.10
62583;DHT22;48641;51.676;5.808;2024-03-23T13:01:15;16.70;55.80
62583;DHT22;48641;51.676;5.808;2024-03-23T13:03:40;16.70;56.00
62583;DHT22;48641;51.676;5.808;2024-03-23T13:06:06;16.70;56.00
62583;DHT22;48641;51.676;5.808;2024-03-23T13:08:34;16.70;56.00
62583;DHT22;48641;51.676;5.808;2024-03-23T13:10:59;16.70;56.10
62583;DHT22;48641;51.676;5.808;2024-03-23T13:13:25;16.70;56.10
62583;DHT22;48641;51.676;5.808;2024-03-23T13:15:50;16.70;56.10
62583;DHT22;48641;51.676;5.808;2024-03-23T13:18:16;16.70;56.10
62583;DHT22;48641;51.676;5.808;2024-03-23T13:20:42;16.70;56.10
62583;DHT22;48641;51.676;5.808;2024-03-23T13:23:07;16.70;56.10
62583;DHT22;48641;51.676;5.808;2024-03-23T13:25:34;16.70;56.20
62583;DHT22;48641;51.676;5.808;2024-03-23T13:27:59;16.70;56.00
62583;DHT22;48641;51.676;5.808;2024-03-23T13:30:26;16.70;56.00
62583;DHT22;48641;51.676;5.808;2024-03-23T13:32:52;16.70;56.10
62583;DHT22;48641;51.676;5.808;2024-03-23T13:35:18;16.70;56.10
62583;DHT22;48641;51.676;5.808;2024-03-23T13:37:43;16.70;56.40
62583;DHT22;48641;51.676;5.808;2024-03-23T13:40:09;16.80;58.30
62583;DHT22;48641;51.676;5.808;2024-03-23T13:42:35;16.80;58.60
62583;DHT22;48641;51.676;5.808;2024-03-23T13:45:00;16.80;58.80
62583;DHT22;48641;51.676;5.808;2024-03-23T13:47:26;16.80;59.30
62583;DHT22;48641;51.676;5.808;2024-03-23T13:49:53;16.90;59.60
62583;DHT22;48641;51.676;5.808;2024-03-23T13:52:18;16.90;59.80
62583;DHT22;48641;51.676;5.808;2024-03-23T13:54:48;17.00;59.90
62583;DHT22;48641;51.676;5.808;2024-03-23T13:57:14;17.00;60.00
62583;DHT22;48641;51.676;5.808;2024-03-23T13:59:39;17.10;59.80
62583;DHT22;48641;51.676;5.808;2024-03-23T14:02:05;17.20;59.70
62583;DHT22;48641;51.676;5.808;2024-03-23T14:04:30;17.20;59.60
62583;DHT22;48641;51.676;5.808;2024-03-23T14:06:56;17.30;59.50
62583;DHT22;48641;51.676;5.808;2024-03-23T14:09:23;17.30;59.10
62583;DHT22;48641;51.676;5.808;2024-03-23T14:11:51;17.40;59.10
62583;DHT22;48641;51.676;5.808;2024-03-23T14:14:17;17.40;59.50
62583;DHT22;48641;51.676;5.808;2024-03-23T14:16:43;17.40;59.50
62583;DHT22;48641;51.676;5.808;2024-03-23T14:19:09;17.40;59.40
62583;DHT22;48641;51.676;5.808;2024-03-23T14:21:34;17.50;58.70
62583;DHT22;48641;51.676;5.808;2024-03-23T14:24:00;17.50;58.60
62583;DHT22;48641;51.676;5.808;2024-03-23T14:26:27;17.50;58.40
62583;DHT22;48641;51.676;5.808;2024-03-23T14:28:52;17.50;58.70
62583;DHT22;48641;51.676;5.808;2024-03-23T14:31:18;17.50;58.70
62583;DHT22;48641;51.676;5.808;2024-03-23T14:33:43;17.50;58.60
62583;DHT22;48641;51.676;5.808;2024-03-23T14:36:13;17.60;58.80
62583;DHT22;48641;51.676;5.808;2024-03-23T14:38:39;17.60;58.90
62583;DHT22;48641;51.676;5.808;2024-03-23T14:41:04;17.60;58.70
62583;DHT22;48641;51.676;5.808;2024-03-23T14:43:30;17.60;58.80
62583;DHT22;48641;51.676;5.808;2024-03-23T14:46:14;17.50;58.80
62583;DHT22;48641;51.676;5.808;2024-03-23T14:48:42;17.60;59.00
62583;DHT22;48641;51.676;5.808;2024-03-23T14:51:08;17.60;58.80
62583;DHT22;48641;51.676;5.808;2024-03-23T14:53:40;17.60;58.80
62583;DHT22;48641;51.676;5.808;2024-03-23T14:56:07;17.60;58.90
62583;DHT22;48641;51.676;5.808;2024-03-23T14:58:33;17.60;58.90
62583;DHT22;48641;51.676;5.808;2024-03-23T15:01:06;17.50;59.10
62583;DHT22;48641;51.676;5.808;2024-03-23T15:03:35;17.60;59.10
62583;DHT22;48641;51.676;5.808;2024-03-23T15:06:01;17.60;58.90
62583;DHT22;48641;51.676;5.808;2024-03-23T15:08:27;17.60;59.00
62583;DHT22;48641;51.676;5.808;2024-03-23T15:10:59;17.60;58.90
62583;DHT22;48641;51.676;5.808;2024-03-23T15:13:25;17.60;58.90
62583;DHT22;48641;51.676;5.808;2024-03-23T15:15:50;17.60;59.20
62583;DHT22;48641;51.676;5.808;2024-03-23T15:18:17;17.60;59.20
62583;DHT22;48641;51.676;5.808;2024-03-23T15:21:00;17.60;60.10
62583;DHT22;48641;51.676;5.808;2024-03-23T15:23:33;17.70;58.70
62583;DHT22;48641;51.676;5.808;2024-03-23T15:26:00;17.70;58.80
62583;DHT22;48641;51.676;5.808;2024-03-23T15:28:27;17.70;58.50
62583;DHT22;48641;51.676;5.808;2024-03-23T15:31:04;17.70;58.20
62583;DHT22;48641;51.676;5.808;2024-03-23T15:33:29;17.70;58.90
62583;DHT22;48641;51.676;5.808;2024-03-23T15:36:01;17.60;58.30
62583;DHT22;48641;51.676;5.808;2024-03-23T15:38:27;17.70;58.70
62583;DHT22;48641;51.676;5.808;2024-03-23T15:40:54;17.70;58.40
62583;DHT22;48641;51.676;5.808;2024-03-23T15:43:20;17.70;58.80
62583;DHT22;48641;51.676;5.808;2024-03-23T15:46:03;17.70;59.50
62583;DHT22;48641;51.676;5.808;2024-03-23T15:48:29;17.70;58.60
62583;DHT22;48641;51.676;5.808;2024-03-23T15:51:04;17.70;58.30
62583;DHT22;48641;51.676;5.808;2024-03-23T15:53:30;17.70;58.60
62583;DHT22;48641;51.676;5.808;2024-03-23T15:56:00;17.70;58.50
62583;DHT22;48641;51.676;5.808;2024-03-23T15:58:27;17.70;59.00
62583;DHT22;48641;51.676;5.808;2024-03-23T16:01:04;17.70;56.50
62583;DHT22;48641;51.676;5.808;2024-03-23T16:03:31;17.70;56.30
62583;DHT22;48641;51.676;5.808;2024-03-23T16:05:59;17.70;56.40
62583;DHT22;48641;51.676;5.808;2024-03-23T16:08:25;17.70;55.70
62583;DHT22;48641;51.676;5.808;2024-03-23T16:10:51;17.60;56.30
62583;DHT22;48641;51.676;5.808;2024-03-23T16:13:17;17.60;56.00
62583;DHT22;48641;51.676;5.808;2024-03-23T16:15:56;17.60;56.00
62583;DHT22;48641;51.676;5.808;2024-03-23T16:18:22;17.60;56.10
62583;DHT22;48641;51.676;5.808;2024-03-23T16:21:04;17.60;56.00
62583;DHT22;48641;51.676;5.808;2024-03-23T16:23:33;17.60;55.80
62583;DHT22;48641;51.676;5.808;2024-03-23T16:25:59;17.50;55.90
62583;DHT22;48641;51.676;5.808;2024-03-23T16:28:33;17.50;56.10
62583;DHT22;48641;51.676;5.808;2024-03-23T16:31:07;17.50;56.00